createdAt,value
2023-04-24T00:02:08.019Z,62.60
2023-04-24T00:04:36.053Z,62.47
2023-04-24T00:07:03.912Z,62.63
2023-04-24T00:09:30.902Z,62.90
2023-04-24T00:11:58.386Z,62.00
2023-04-24T00:14:25.768Z,61.53
2023-04-24T00:16:53.116Z,63.27
2023-04-24T00:19:22.185Z,62.60
2023-04-24T00:21:52.713Z,62.00
2023-04-24T00:24:20.057Z,62.63
2023-04-24T00:26:47.065Z,62.30
2023-04-24T00:29:14.222Z,61.43
2023-04-24T00:31:41.388Z,61.67
2023-04-24T00:34:08.864Z,61.87
2023-04-24T00:36:36.303Z,62.00
2023-04-24T00:39:03.672Z,61.50
2023-04-24T00:41:31.440Z,61.70
2023-04-24T00:43:58.796Z,62.20
2023-04-24T00:46:26.295Z,62.20
2023-04-24T00:48:53.847Z,61.83
2023-04-24T00:51:22.047Z,61.77
2023-04-24T00:53:49.367Z,61.73
2023-04-24T00:56:16.758Z,61.23
2023-04-24T00:58:44.546Z,61.27
2023-04-24T01:01:12.640Z,62.63
2023-04-24T01:03:40.210Z,62.13
2023-04-24T01:06:08.172Z,61.67
2023-04-24T01:08:37.091Z,60.77
2023-04-24T01:11:05.954Z,60.73
2023-04-24T01:13:34.241Z,61.90
2023-04-24T01:16:02.285Z,61.83
2023-04-24T01:18:29.901Z,61.90
2023-04-24T01:21:01.150Z,62.00
2023-04-24T01:23:28.643Z,61.97
2023-04-24T01:25:56.096Z,61.33
2023-04-24T01:28:23.459Z,62.03
2023-04-24T01:30:50.920Z,61.37
2023-04-24T01:33:18.437Z,62.33
2023-04-24T01:35:45.904Z,61.37
2023-04-24T01:38:13.296Z,62.37
2023-04-24T01:40:40.705Z,61.20
2023-04-24T01:43:08.100Z,61.80
2023-04-24T01:45:35.499Z,62.37
2023-04-24T01:48:05.246Z,61.60
2023-04-24T01:50:32.928Z,62.63
2023-04-24T01:53:00.456Z,60.90
2023-04-24T01:55:28.372Z,61.57
2023-04-24T01:57:57.613Z,62.03
2023-04-24T02:00:25.977Z,62.03
2023-04-24T02:02:54.492Z,61.53
2023-04-24T02:05:21.662Z,61.23
2023-04-24T02:07:48.603Z,60.70
2023-04-24T02:10:16.015Z,61.87
2023-04-24T02:12:43.724Z,62.30
2023-04-24T02:15:11.484Z,61.00
2023-04-24T02:17:39.172Z,61.90
2023-04-24T02:20:08.330Z,60.90
2023-04-24T02:22:35.998Z,62.10
2023-04-24T02:25:03.816Z,61.40
2023-04-24T02:27:31.262Z,62.17
2023-04-24T02:29:58.643Z,62.07
2023-04-24T02:32:25.602Z,62.90
2023-04-24T02:34:52.700Z,62.97
2023-04-24T02:37:19.678Z,61.93
2023-04-24T02:39:46.677Z,62.33
2023-04-24T02:42:13.869Z,62.30
2023-04-24T02:44:41.857Z,62.67
2023-04-24T02:47:09.627Z,61.87
2023-04-24T02:49:36.631Z,61.60
2023-04-24T02:52:03.692Z,61.87
2023-04-24T02:54:30.737Z,62.77
2023-04-24T02:56:57.834Z,62.97
2023-04-24T02:59:24.956Z,62.27
2023-04-24T03:01:51.911Z,62.77
2023-04-24T03:04:21.405Z,62.50
2023-04-24T03:06:49.070Z,62.00
2023-04-24T03:09:16.149Z,62.57
2023-04-24T03:11:43.058Z,62.80
2023-04-24T03:14:10.113Z,62.30
2023-04-24T03:16:38.715Z,62.23
2023-04-24T03:19:07.503Z,63.33
2023-04-24T03:21:41.724Z,62.37
2023-04-24T03:24:11.860Z,62.20
2023-04-24T03:26:39.289Z,62.87
2023-04-24T03:29:19.920Z,61.93
2023-04-24T03:31:47.424Z,62.90
2023-04-24T03:34:14.483Z,62.23
2023-04-24T03:36:41.953Z,62.77
2023-04-24T03:39:09.574Z,62.77
2023-04-24T03:41:39.017Z,62.53
2023-04-24T03:44:16.536Z,62.33
2023-04-24T03:46:43.997Z,62.97
2023-04-24T03:49:11.203Z,62.13
2023-04-24T03:51:42.710Z,63.03
2023-04-24T03:54:18.576Z,62.90
2023-04-24T03:56:46.973Z,62.93
2023-04-24T03:59:14.484Z,62.13
2023-04-24T04:01:44.403Z,61.90
2023-04-24T04:04:18.158Z,62.10
2023-04-24T04:06:47.500Z,62.17
2023-04-24T04:09:14.937Z,61.50
2023-04-24T04:11:42.121Z,61.43
2023-04-24T04:14:09.114Z,62.17
2023-04-24T04:16:39.791Z,62.43
2023-04-24T04:19:07.539Z,62.43
2023-04-24T04:21:35.519Z,62.63
2023-04-24T04:24:11.289Z,62.40
2023-04-24T04:26:47.317Z,61.77
2023-04-24T04:29:21.381Z,62.43
2023-04-24T04:31:51.246Z,62.77
2023-04-24T04:34:18.350Z,61.43
2023-04-24T04:36:47.315Z,62.67
2023-04-24T04:39:27.078Z,62.53
2023-04-24T04:41:59.532Z,62.37
2023-04-24T04:44:33.697Z,63.73
2023-04-24T04:47:01.515Z,63.87
2023-04-24T04:49:35.624Z,62.90
2023-04-24T04:52:02.826Z,63.10
2023-04-24T04:54:29.878Z,62.70
2023-04-24T04:56:58.405Z,64.17
2023-04-24T04:59:25.881Z,63.00
2023-04-24T05:01:59.184Z,64.47
2023-04-24T05:04:26.558Z,63.50
2023-04-24T05:06:53.948Z,63.73
2023-04-24T05:09:23.548Z,63.57
2023-04-24T05:11:57.168Z,62.47
2023-04-24T05:14:25.683Z,63.60
2023-04-24T05:16:52.965Z,63.13
2023-04-24T05:19:22.057Z,63.80
2023-04-24T05:21:49.084Z,63.37
2023-04-24T05:24:16.335Z,64.07
2023-04-24T05:27:05.479Z,63.83
2023-04-24T05:29:38.397Z,64.03
2023-04-24T05:32:06.823Z,63.93
2023-04-24T05:34:34.172Z,64.50
2023-04-24T05:37:01.338Z,63.67
2023-04-24T05:39:28.415Z,64.70
2023-04-24T05:41:58.972Z,64.53
2023-04-24T05:44:26.728Z,64.00
2023-04-24T05:46:54.103Z,64.17
2023-04-24T05:49:21.141Z,64.63
2023-04-24T05:51:48.655Z,64.20
2023-04-24T05:54:16.868Z,67.57
2023-04-24T05:56:44.001Z,66.13
2023-04-24T05:59:14.730Z,63.43
2023-04-24T06:01:41.893Z,65.30
2023-04-24T06:04:17.161Z,65.37
2023-04-24T06:06:44.285Z,64.45
2023-04-24T06:09:11.387Z,63.83
2023-04-24T06:11:38.453Z,64.35
2023-04-24T06:14:06.702Z,65.33
2023-04-24T06:16:41.157Z,65.50
2023-04-24T06:19:28.532Z,64.83
2023-04-24T06:21:55.527Z,65.10
2023-04-24T06:24:22.518Z,65.28
2023-04-24T06:26:49.498Z,64.83
2023-04-24T06:29:16.458Z,65.38
2023-04-24T06:31:43.522Z,64.93
2023-04-24T06:34:11.159Z,65.15
2023-04-24T06:36:38.422Z,65.47
2023-04-24T06:39:05.794Z,65.03
2023-04-24T06:41:32.784Z,65.45
2023-04-24T06:43:59.720Z,66.78
2023-04-24T06:46:28.600Z,67.07
2023-04-24T06:48:58.848Z,67.07
2023-04-24T06:51:26.896Z,65.85
2023-04-24T06:53:54.804Z,65.85
2023-04-24T06:56:21.964Z,65.45
2023-04-24T06:58:49.234Z,66.03
2023-04-24T07:01:16.242Z,65.80
2023-04-24T07:03:43.440Z,65.53
2023-04-24T07:06:14.322Z,75.15
2023-04-24T07:08:42.872Z,65.55
2023-04-24T07:11:09.953Z,66.05
2023-04-24T07:13:36.858Z,67.10
2023-04-24T07:16:04.246Z,65.72
2023-04-24T07:18:31.312Z,66.45
2023-04-24T07:20:58.802Z,66.55
2023-04-24T07:23:25.932Z,67.97
2023-04-24T07:25:52.912Z,67.22
2023-04-24T07:28:19.895Z,66.93
2023-04-24T07:30:46.840Z,67.55
2023-04-24T07:33:14.379Z,67.93
2023-04-24T07:35:41.560Z,66.32
2023-04-24T07:38:08.534Z,66.40
2023-04-24T07:40:35.546Z,67.75
2023-04-24T07:43:02.617Z,66.20
2023-04-24T07:45:29.587Z,66.47
2023-04-24T07:47:56.932Z,66.50
2023-04-24T07:50:24.033Z,67.20
2023-04-24T07:52:51.238Z,67.75
2023-04-24T07:55:18.511Z,66.88
2023-04-24T07:57:46.446Z,67.82
2023-04-24T08:00:14.550Z,67.88
2023-04-24T08:02:41.733Z,68.07
2023-04-24T08:05:09.492Z,66.32
2023-04-24T08:07:36.746Z,67.68
2023-04-24T08:10:04.319Z,67.65
2023-04-24T08:12:31.727Z,68.35
2023-04-24T08:14:58.747Z,66.68
2023-04-24T08:17:26.518Z,67.20
2023-04-24T08:20:00.063Z,67.30
2023-04-24T08:22:27.430Z,67.30
2023-04-24T08:24:55.190Z,67.28
2023-04-24T08:27:22.143Z,68.47
2023-04-24T08:29:49.129Z,66.72
2023-04-24T08:32:16.226Z,67.15
2023-04-24T08:34:43.169Z,67.43
2023-04-24T08:37:10.534Z,66.75
2023-04-24T08:39:38.453Z,67.88
2023-04-24T08:42:09.042Z,67.97
2023-04-24T08:44:37.514Z,67.93
2023-04-24T08:47:05.062Z,67.35
2023-04-24T08:49:32.884Z,67.80
2023-04-24T08:52:01.281Z,68.15
2023-04-24T08:54:29.392Z,67.40
2023-04-24T08:57:02.307Z,68.40
2023-04-24T08:59:29.888Z,67.03
2023-04-24T09:01:57.730Z,69.20
2023-04-24T09:04:26.243Z,67.85
2023-04-24T09:06:58.744Z,68.25
2023-04-24T09:09:26.687Z,68.15
2023-04-24T09:11:57.133Z,67.60
2023-04-24T09:14:24.854Z,68.68
2023-04-24T09:16:52.244Z,69.25
2023-04-24T09:19:19.329Z,66.13
2023-04-24T09:21:49.635Z,64.97
2023-04-24T09:24:21.265Z,65.78
2023-04-24T09:26:48.299Z,66.43
2023-04-24T09:29:17.932Z,66.03
2023-04-24T09:31:46.808Z,65.68
2023-04-24T09:34:14.400Z,65.82
2023-04-24T09:36:44.042Z,65.97
2023-04-24T09:39:16.367Z,66.93
2023-04-24T09:41:54.049Z,67.63
2023-04-24T09:44:23.610Z,68.47
2023-04-24T09:46:55.679Z,68.65
2023-04-24T09:49:30.961Z,68.68
2023-04-24T09:52:10.300Z,69.25
2023-04-24T09:54:38.448Z,69.05
2023-04-24T09:57:06.046Z,68.75
2023-04-24T09:59:33.656Z,69.80
2023-04-24T10:02:01.613Z,75.95
2023-04-24T10:04:30.039Z,70.22
2023-04-24T10:06:58.569Z,70.10
2023-04-24T10:09:27.718Z,70.20
2023-04-24T10:11:56.048Z,70.05
2023-04-24T10:14:26.027Z,71.60
2023-04-24T10:16:55.883Z,71.95
2023-04-24T10:19:26.879Z,71.22
2023-04-24T10:21:55.676Z,71.53
2023-04-24T10:24:22.836Z,71.43
2023-04-24T10:26:50.351Z,72.45
2023-04-24T10:29:20.109Z,73.32
2023-04-24T10:31:48.011Z,73.53
2023-04-24T10:34:18.550Z,73.40
2023-04-24T10:36:53.903Z,74.18
2023-04-24T10:39:27.765Z,72.60
2023-04-24T10:41:58.491Z,71.97
2023-04-24T10:44:25.893Z,73.82
2023-04-24T10:46:57.238Z,72.80
2023-04-24T10:49:32.523Z,73.28
2023-04-24T10:52:07.605Z,72.72
2023-04-24T10:54:43.437Z,72.22
2023-04-24T10:57:25.638Z,71.70
2023-04-24T11:00:17.716Z,71.18
2023-04-24T11:02:53.903Z,70.75
2023-04-24T11:05:23.157Z,70.82
2023-04-24T11:08:24.727Z,71.47
2023-04-24T11:11:05.281Z,71.97
2023-04-24T11:13:57.569Z,72.18
2023-04-24T11:16:24.668Z,73.22
2023-04-24T11:19:01.787Z,72.53
2023-04-24T11:22:02.638Z,73.95
2023-04-24T11:24:47.877Z,73.45
2023-04-24T11:27:23.262Z,72.80
2023-04-24T11:29:57.517Z,73.88
2023-04-24T11:32:43.475Z,73.30
2023-04-24T11:35:28.824Z,73.05
2023-04-24T11:40:26.912Z,72.30
2023-04-24T11:42:57.703Z,73.18
2023-04-24T11:45:31.529Z,72.63
2023-04-24T11:48:00.002Z,74.22
2023-04-24T11:50:29.697Z,73.68
2023-04-24T11:52:57.487Z,74.03
2023-04-24T11:55:27.980Z,74.55
2023-04-24T11:58:00.983Z,73.28
2023-04-24T12:00:35.282Z,74.57
2023-04-24T12:03:13.504Z,73.65
2023-04-24T12:05:41.452Z,72.95
2023-04-24T12:08:08.813Z,73.90
2023-04-24T12:10:36.827Z,72.90
2023-04-24T12:13:04.265Z,73.25
2023-04-24T12:15:31.538Z,73.07
2023-04-24T12:17:59.888Z,71.85
2023-04-24T12:20:30.292Z,72.90
2023-04-24T12:22:59.996Z,73.25
2023-04-24T12:25:29.630Z,71.57
2023-04-24T12:28:12.244Z,72.93
2023-04-24T12:30:49.198Z,73.05
2023-04-24T12:33:20.928Z,71.22
2023-04-24T12:35:52.192Z,71.70
2023-04-24T12:38:27.635Z,67.93
2023-04-24T12:41:06.434Z,68.30
2023-04-24T12:43:33.896Z,75.35
2023-04-24T12:46:00.959Z,67.75
2023-04-24T12:48:29.402Z,66.05
2023-04-24T12:51:01.647Z,65.63
2023-04-24T12:53:30.768Z,64.72
2023-04-24T12:55:58.150Z,67.78
2023-04-24T12:58:25.664Z,64.88
2023-04-24T13:00:53.224Z,64.60
2023-04-24T13:03:20.818Z,64.53
2023-04-24T13:05:48.017Z,64.70
2023-04-24T13:08:15.092Z,64.40
2023-04-24T13:10:42.261Z,66.00
2023-04-24T13:13:09.899Z,65.13
2023-04-24T13:15:36.877Z,65.45
2023-04-24T13:18:04.021Z,65.75
2023-04-24T13:20:31.259Z,64.88
2023-04-24T13:22:58.240Z,65.88
2023-04-24T13:25:25.959Z,66.15
2023-04-24T13:27:52.964Z,66.10
2023-04-24T13:30:20.008Z,65.18
2023-04-24T13:32:47.097Z,65.15
2023-04-24T13:35:14.151Z,66.03
2023-04-24T13:37:41.256Z,65.45
2023-04-24T13:40:09.252Z,65.15
2023-04-24T13:42:36.216Z,66.20
2023-04-24T13:45:17.420Z,66.18
2023-04-24T13:47:52.332Z,66.65
2023-04-24T13:50:19.734Z,67.07
2023-04-24T13:52:46.860Z,66.78
2023-04-24T13:55:13.895Z,66.38
2023-04-24T13:57:41.239Z,66.85
2023-04-24T14:00:11.522Z,67.55
2023-04-24T14:02:38.908Z,66.43
2023-04-24T14:05:07.548Z,66.75
2023-04-24T14:07:34.572Z,68.22
2023-04-24T14:10:01.630Z,68.65
2023-04-24T14:12:28.942Z,68.10
2023-04-24T14:14:55.976Z,67.88
2023-04-24T14:17:23.108Z,67.60
2023-04-24T14:19:50.075Z,68.32
2023-04-24T14:22:17.648Z,66.95
2023-04-24T14:24:44.768Z,67.55
2023-04-24T14:27:11.772Z,67.15
2023-04-24T14:29:38.694Z,67.75
2023-04-24T14:32:05.775Z,67.82
2023-04-24T14:34:32.802Z,67.40
2023-04-24T14:37:00.017Z,66.97
2023-04-24T14:39:27.026Z,67.20
2023-04-24T14:41:54.177Z,66.72
2023-04-24T14:44:21.157Z,66.68
2023-04-24T14:46:49.557Z,67.78
2023-04-24T14:49:16.654Z,68.30
2023-04-24T14:51:44.462Z,70.93
2023-04-24T14:54:11.625Z,68.45
2023-04-24T14:56:40.510Z,68.78
2023-04-24T14:59:08.249Z,69.20
2023-04-24T15:01:35.348Z,69.00
2023-04-24T15:04:02.528Z,68.10
2023-04-24T15:06:32.455Z,68.72
2023-04-24T15:08:59.552Z,68.05
2023-04-24T15:11:27.055Z,71.43
2023-04-24T15:13:54.112Z,68.88
2023-04-24T15:16:21.515Z,68.68
2023-04-24T15:18:48.523Z,68.57
2023-04-24T15:21:15.549Z,67.40
2023-04-24T15:23:42.521Z,67.93
2023-04-24T15:26:09.482Z,66.88
2023-04-24T15:28:36.415Z,68.03
2023-04-24T15:31:03.531Z,70.38
2023-04-24T15:33:30.642Z,67.53
2023-04-24T15:35:57.839Z,68.22
2023-04-24T15:38:24.794Z,68.93
2023-04-24T15:40:52.023Z,68.05
2023-04-24T15:43:18.974Z,68.10
2023-04-24T15:45:46.103Z,72.10
2023-04-24T15:48:13.358Z,67.68
2023-04-24T15:50:40.411Z,68.20
2023-04-24T15:53:07.519Z,67.45
2023-04-24T15:55:35.410Z,101.82
2023-04-24T15:58:02.384Z,69.13
2023-04-24T16:00:34.147Z,67.68
2023-04-24T16:03:02.397Z,67.80
2023-04-24T16:05:29.740Z,68.55
2023-04-24T16:07:57.365Z,68.47
2023-04-24T16:10:24.320Z,66.85
2023-04-24T16:12:54.632Z,67.78
2023-04-24T16:15:22.172Z,67.00
2023-04-24T16:17:50.724Z,68.88
2023-04-24T16:20:17.788Z,66.35
2023-04-24T16:22:44.787Z,66.70
2023-04-24T16:25:12.050Z,67.05
2023-04-24T16:27:39.239Z,67.65
2023-04-24T16:30:07.277Z,66.93
2023-04-24T16:32:34.354Z,66.35
2023-04-24T16:35:01.364Z,68.55
2023-04-24T16:37:30.649Z,68.22
2023-04-24T16:39:57.703Z,67.55
2023-04-24T16:42:24.662Z,67.82
2023-04-24T16:44:51.608Z,69.15
2023-04-24T16:47:19.275Z,67.68
2023-04-24T16:49:46.314Z,68.13
2023-04-24T16:52:13.496Z,68.32
2023-04-24T16:54:40.490Z,68.65
2023-04-24T16:57:08.033Z,67.97
2023-04-24T16:59:35.340Z,68.45
2023-04-24T17:02:03.545Z,69.57
2023-04-24T17:04:32.295Z,68.45
2023-04-24T17:06:59.377Z,67.22
2023-04-24T17:09:26.463Z,67.22
2023-04-24T17:11:53.456Z,67.60
2023-04-24T17:14:20.538Z,67.78
2023-04-24T17:16:47.733Z,69.00
2023-04-24T17:19:14.733Z,68.25
2023-04-24T17:21:41.747Z,70.13
2023-04-24T17:24:08.697Z,69.15
2023-04-24T17:26:35.757Z,69.05
2023-04-24T17:29:03.529Z,69.18
2023-04-24T17:31:30.617Z,70.38
2023-04-24T17:33:57.916Z,69.50
2023-04-24T17:36:24.881Z,69.50
2023-04-24T17:38:51.857Z,68.95
2023-04-24T17:41:18.844Z,70.35
2023-04-24T17:43:46.011Z,71.32
2023-04-24T17:46:13.487Z,68.75
2023-04-24T17:48:40.685Z,69.93
2023-04-24T17:51:08.230Z,67.93
2023-04-24T17:53:35.282Z,67.53
2023-04-24T17:56:03.868Z,68.13
2023-04-24T17:58:31.440Z,68.63
2023-04-24T18:00:58.437Z,68.97
2023-04-24T18:03:25.651Z,68.47
2023-04-24T18:05:52.829Z,69.75
2023-04-24T18:08:19.911Z,70.18
2023-04-24T18:10:47.214Z,68.72
2023-04-24T18:13:14.357Z,70.93
2023-04-24T18:15:43.282Z,68.85
2023-04-24T18:18:11.648Z,70.95
2023-04-24T18:20:39.424Z,70.95
2023-04-24T18:23:06.621Z,72.53
2023-04-24T18:25:33.752Z,72.05
2023-04-24T18:28:00.875Z,73.55
2023-04-24T18:30:31.018Z,111.85
2023-04-24T18:32:58.115Z,74.43
2023-04-24T18:35:25.126Z,74.38
2023-04-24T18:37:52.566Z,75.93
2023-04-24T18:40:19.599Z,73.40
2023-04-24T18:42:46.708Z,73.88
2023-04-24T18:45:15.211Z,71.28
2023-04-24T18:47:43.657Z,68.97
2023-04-24T18:50:11.909Z,202.07
2023-04-24T18:52:39.209Z,70.80
2023-04-24T18:55:07.057Z,66.82
2023-04-24T18:57:34.408Z,66.72
2023-04-24T19:00:01.519Z,65.78
2023-04-24T19:02:28.683Z,66.07
2023-04-24T19:04:55.730Z,66.07
2023-04-24T19:07:22.803Z,66.65
2023-04-24T19:09:49.793Z,66.28
2023-04-24T19:12:17.098Z,65.57
2023-04-24T19:14:46.018Z,65.93
2023-04-24T19:17:13.016Z,64.63
2023-04-24T19:19:39.963Z,76.85
2023-04-24T19:22:07.779Z,74.15
2023-04-24T19:24:34.957Z,148.77
2023-04-24T19:27:02.320Z,108.15
2023-04-24T19:29:29.281Z,354.88
2023-04-24T19:31:58.504Z,415.52
2023-04-24T19:34:26.382Z,83.07
2023-04-24T19:36:53.643Z,154.70
2023-04-24T19:39:20.727Z,63.42
2023-04-24T19:41:47.784Z,63.97
2023-04-24T19:44:15.673Z,228.98
2023-04-24T19:46:43.528Z,292.85
2023-04-24T19:49:10.821Z,238.50
2023-04-24T19:51:38.593Z,69.40
2023-04-24T19:54:06.322Z,67.22
2023-04-24T19:56:33.704Z,67.10
2023-04-24T19:59:01.089Z,67.45
2023-04-24T20:01:28.250Z,99.80
2023-04-24T20:03:55.733Z,69.25
2023-04-24T20:06:22.955Z,71.57
2023-04-24T20:08:50.229Z,72.35
2023-04-24T20:11:17.524Z,85.55
2023-04-24T20:13:44.506Z,72.53
2023-04-24T20:16:11.799Z,301.15
2023-04-24T20:18:39.066Z,256.13
2023-04-24T20:21:05.988Z,71.68
2023-04-24T20:23:32.983Z,225.45
2023-04-24T20:26:01.008Z,332.27
2023-04-24T20:28:30.278Z,76.55
2023-04-24T20:30:59.021Z,169.73
2023-04-24T20:33:28.021Z,179.43
2023-04-24T20:35:55.609Z,171.60
2023-04-24T20:38:22.875Z,193.90
2023-04-24T20:40:57.707Z,154.85
2023-04-24T20:43:29.597Z,183.50
2023-04-24T20:45:58.143Z,194.07
2023-04-24T20:48:26.514Z,185.40
2023-04-24T20:50:54.008Z,175.10
2023-04-24T20:53:21.560Z,66.93
2023-04-24T20:55:48.958Z,125.63
2023-04-24T20:58:18.558Z,209.93
2023-04-24T21:00:46.905Z,100.25
2023-04-24T21:03:14.146Z,108.97
2023-04-24T21:05:41.432Z,101.15
2023-04-24T21:08:08.412Z,122.05
2023-04-24T21:10:35.540Z,176.95
2023-04-24T21:13:02.489Z,65.20
2023-04-24T21:15:30.720Z,137.23
2023-04-24T21:17:57.727Z,139.52
2023-04-24T21:20:25.248Z,121.20
2023-04-24T21:22:52.186Z,109.53
2023-04-24T21:25:19.255Z,143.30
2023-04-24T21:27:46.407Z,203.45
2023-04-24T21:30:13.649Z,135.23
2023-04-24T21:32:40.893Z,197.88
2023-04-24T21:35:08.446Z,148.63
2023-04-24T21:37:36.791Z,171.43
2023-04-24T21:40:04.901Z,168.35
2023-04-24T21:42:32.244Z,63.07
2023-04-24T21:44:59.246Z,64.33
2023-04-24T21:47:26.400Z,150.02
2023-04-24T21:49:53.432Z,190.20
2023-04-24T21:52:20.407Z,142.10
2023-04-24T21:54:47.534Z,124.28
2023-04-24T21:57:14.617Z,156.88
2023-04-24T21:59:41.995Z,129.95
2023-04-24T22:02:09.093Z,64.57
2023-04-24T22:04:36.248Z,115.30
2023-04-24T22:07:03.321Z,153.05
2023-04-24T22:09:30.482Z,137.98
2023-04-24T22:11:57.607Z,130.18
2023-04-24T22:14:24.593Z,133.57
2023-04-24T22:16:51.495Z,63.40
2023-04-24T22:19:18.447Z,62.97
2023-04-24T22:21:45.790Z,62.37
2023-04-24T22:24:12.803Z,100.38
2023-04-24T22:26:40.217Z,82.57
2023-04-24T22:29:07.111Z,85.57
2023-04-24T22:31:34.724Z,154.00
2023-04-24T22:34:01.899Z,147.05
2023-04-24T22:36:28.830Z,95.32
2023-04-24T22:38:55.807Z,132.10
2023-04-24T22:41:23.344Z,112.60
2023-04-24T22:43:50.821Z,63.85
2023-04-24T22:46:18.104Z,63.42
2023-04-24T22:48:45.767Z,62.63
2023-04-24T22:51:12.779Z,158.98
2023-04-24T22:53:39.755Z,72.20
2023-04-24T22:56:07.262Z,103.65
2023-04-24T22:58:34.263Z,120.20
2023-04-24T23:01:01.418Z,92.00
2023-04-24T23:03:28.631Z,118.40
2023-04-24T23:05:55.842Z,113.93
2023-04-24T23:08:22.878Z,93.07
2023-04-24T23:10:49.854Z,174.55
2023-04-24T23:13:17.248Z,128.43
2023-04-24T23:15:44.244Z,136.60
2023-04-24T23:18:11.610Z,99.93
2023-04-24T23:20:39.012Z,122.28
2023-04-24T23:23:05.990Z,177.07
2023-04-24T23:25:33.189Z,158.77
2023-04-24T23:28:00.116Z,101.68
2023-04-24T23:30:27.254Z,121.65
2023-04-24T23:32:54.272Z,103.63
2023-04-24T23:35:21.341Z,138.30
2023-04-24T23:37:48.309Z,102.97
2023-04-24T23:40:15.315Z,134.63
2023-04-24T23:42:42.272Z,133.77
2023-04-24T23:45:10.910Z,118.15
2023-04-24T23:47:38.254Z,94.10
2023-04-24T23:50:06.073Z,136.15
2023-04-24T23:52:35.316Z,151.55
2023-04-24T23:55:04.740Z,128.90
2023-04-24T23:57:32.218Z,112.35
2023-04-24T23:59:59.175Z,73.60
